Time;durP1;ratioP1;P1;durP2;ratioP2;P2;SDS_P1;SDS_P2;PMS_P1;PMS_P2;Temp;Humidity;BMP_temperature;BMP_pressure;BME280_temperature;BME280_humidity;BME280_pressure;Samples;Min_cycle;Max_cycle;Signal;HPM_P1;HPM_P2
2022/05/03 00:00:23;;;;;;;11.60;5.05;;;6.50;99.90;;;;;;5051610;28;20061;-74
2022/05/03 00:03:26;;;;;;;13.18;5.57;;;6.40;99.90;;;;;;5051182;28;20123;-73
2022/05/03 00:06:04;;;;;;;13.20;6.05;;;6.40;99.90;;;;;;5051902;28;20140;-76
2022/05/03 00:08:42;;;;;;;12.35;5.40;;;6.40;99.90;;;;;;5051370;28;20116;-74
2022/05/03 00:11:29;;;;;;;10.25;4.40;;;6.30;99.90;;;;;;5052424;28;20045;-75
2022/05/03 00:14:01;;;;;;;11.20;5.63;;;6.30;99.90;;;;;;5052884;28;20055;-74
2022/05/03 00:16:27;;;;;;;11.27;5.30;;;6.30;99.90;;;;;;5051592;28;20087;-75
2022/05/03 00:18:53;;;;;;;12.65;4.82;;;6.20;99.90;;;;;;5052283;28;20072;-73
2022/05/03 00:21:20;;;;;;;11.37;5.57;;;6.20;99.90;;;;;;5051330;28;20091;-75
2022/05/03 00:23:46;;;;;;;13.02;5.90;;;6.10;99.90;;;;;;5034310;28;20345;-72
2022/05/03 00:26:13;;;;;;;12.40;5.75;;;6.10;99.90;;;;;;5050973;28;20421;-74
2022/05/03 00:28:40;;;;;;;13.20;5.72;;;6.00;99.90;;;;;;5052829;28;20068;-73
2022/05/03 00:31:07;;;;;;;13.85;5.88;;;6.00;99.90;;;;;;5051607;28;20484;-73
2022/05/03 00:33:33;;;;;;;10.38;5.25;;;5.90;99.90;;;;;;5034520;28;20053;-73
2022/05/03 00:35:59;;;;;;;15.02;6.03;;;5.90;99.90;;;;;;5050953;28;20045;-72
2022/05/03 00:38:25;;;;;;;14.80;5.87;;;5.90;99.90;;;;;;5036425;28;20057;-72
2022/05/03 00:40:59;;;;;;;13.15;6.05;;;5.90;99.90;;;;;;5037878;28;20045;-73
2022/05/03 00:43:38;;;;;;;11.52;5.68;;;5.80;99.90;;;;;;5056561;28;20067;-73
2022/05/03 00:46:16;;;;;;;15.88;6.25;;;5.80;99.90;;;;;;5056702;28;20482;-73
2022/05/03 00:49:13;;;;;;;13.82;6.60;;;5.80;99.90;;;;;;5055452;28;20045;-73
2022/05/03 00:51:42;;;;;;;;;;;5.80;99.90;;;;;;5055587;28;20488;-74
2022/05/03 00:54:35;;;;;;;14.35;6.00;;;5.80;99.90;;;;;;5054145;28;20384;-74
2022/05/03 00:57:37;;;;;;;14.27;6.28;;;5.70;99.90;;;;;;5054513;28;20516;-74
2022/05/03 01:00:06;;;;;;;15.45;6.88;;;5.70;99.90;;;;;;5036894;28;20071;-75
2022/05/03 01:02:57;;;;;;;15.52;6.13;;;5.70;99.90;;;;;;5038638;28;20110;-73
2022/05/03 01:05:28;;;;;;;12.75;5.82;;;5.60;99.90;;;;;;5054246;28;20080;-73
2022/05/03 01:08:07;;;;;;;13.60;6.03;;;5.60;99.90;;;;;;5054665;28;20045;-73
2022/05/03 01:10:51;;;;;;;11.73;5.70;;;5.50;99.90;;;;;;5054468;28;20123;-71
2022/05/03 01:13:36;;;;;;;13.73;5.93;;;5.40;99.90;;;;;;5055140;28;20049;-72
2022/05/03 01:16:17;;;;;;;14.50;5.82;;;5.40;99.90;;;;;;5053839;28;20071;-74
2022/05/03 01:19:00;;;;;;;13.93;6.00;;;5.30;99.90;;;;;;5054687;28;20060;-73
2022/05/03 01:21:59;;;;;;;14.38;6.00;;;5.20;99.90;;;;;;5038376;28;20412;-73
2022/05/03 01:24:42;;;;;;;13.95;5.82;;;5.20;99.90;;;;;;5054507;28;20037;-74
2022/05/03 01:27:30;;;;;;;13.55;6.68;;;5.10;99.90;;;;;;5039696;28;20080;-74
2022/05/03 01:29:59;;;;;;;13.95;6.50;;;5.10;99.90;;;;;;5057408;28;20048;-74
2022/05/03 01:32:25;;;;;;;15.63;6.68;;;5.10;99.90;;;;;;5089559;28;20138;-73
2022/05/03 01:34:52;;;;;;;14.55;6.38;;;5.10;99.90;;;;;;5055836;28;20041;-74
2022/05/03 01:37:46;;;;;;;14.38;6.40;;;5.00;99.90;;;;;;5055501;28;20102;-74
2022/05/03 01:40:30;;;;;;;17.13;7.50;;;5.00;99.90;;;;;;5057326;28;20133;-73
2022/05/03 01:43:06;;;;;;;16.83;7.90;;;5.00;99.90;;;;;;5057198;28;20124;-78
2022/05/03 01:45:53;;;;;;;16.60;7.65;;;5.00;99.90;;;;;;5059872;28;20056;-73
2022/05/03 01:51:49;;;;;;;14.48;7.00;;;5.00;99.90;;;;;;5071362;28;19921;-72
2022/05/03 01:54:21;;;;;;;15.38;6.97;;;5.00;99.90;;;;;;5068099;28;20064;-73
2022/05/03 01:57:03;;;;;;;18.73;7.13;;;4.90;99.90;;;;;;5072721;28;20138;-74
2022/05/03 01:59:38;;;;;;;20.65;6.97;;;4.90;99.90;;;;;;5075145;28;20061;-75
2022/05/03 02:02:26;;;;;;;13.95;7.13;;;4.90;99.90;;;;;;5071639;28;20354;-73
2022/05/03 02:05:05;;;;;;;18.58;7.15;;;4.80;99.90;;;;;;5046265;28;20048;-73
2022/05/03 02:07:58;;;;;;;14.98;7.20;;;4.80;99.90;;;;;;5057860;28;20056;-72
2022/05/03 02:10:43;;;;;;;16.20;7.50;;;4.90;99.90;;;;;;5057483;28;20052;-75
2022/05/03 02:14:44;;;;;;;19.50;7.40;;;4.90;99.90;;;;;;5059668;28;20052;-72
2022/05/03 02:16:29;;;;;;;16.27;7.15;;;4.90;99.90;;;;;;5056156;28;20393;-73
2022/05/03 02:19:07;;;;;;;18.92;7.15;;;4.90;99.90;;;;;;5055605;28;20149;-75
2022/05/03 02:21:48;;;;;;;19.23;7.57;;;4.80;99.90;;;;;;5053189;28;20045;-74
2022/05/03 02:24:32;;;;;;;17.13;7.03;;;4.80;99.90;;;;;;5054745;28;20048;-73
2022/05/03 02:27:10;;;;;;;16.70;7.60;;;4.80;99.90;;;;;;5054614;28;20053;-72
2022/05/03 02:29:47;;;;;;;15.52;6.88;;;4.80;99.90;;;;;;5053232;28;20043;-73
2022/05/03 02:32:20;;;;;;;16.05;7.28;;;4.80;99.90;;;;;;5052944;28;20507;-71
2022/05/03 02:34:49;;;;;;;17.08;7.68;;;4.90;99.90;;;;;;5060622;28;20049;-72
2022/05/03 02:37:18;;;;;;;17.40;7.70;;;4.80;99.90;;;;;;5062723;28;20080;-72
2022/05/03 02:39:50;;;;;;;16.95;7.28;;;4.80;99.90;;;;;;5059951;28;20068;-73
2022/05/03 02:42:18;;;;;;;19.92;7.60;;;4.70;99.90;;;;;;5061027;28;20080;-72
2022/05/03 02:44:45;;;;;;;15.75;6.70;;;4.70;99.90;;;;;;5042621;28;20047;-75
2022/05/03 02:47:34;;;;;;;13.77;6.68;;;4.70;99.90;;;;;;5042076;28;20068;-72
2022/05/03 02:50:14;;;;;;;16.42;7.80;;;4.70;99.90;;;;;;5034214;28;20053;-73
2022/05/03 02:52:49;;;;;;;16.30;7.93;;;4.70;99.90;;;;;;5040518;28;20174;-73
2022/05/03 02:55:30;;;;;;;21.42;8.68;;;4.70;99.90;;;;;;5057335;28;20110;-73
2022/05/03 02:58:24;;;;;;;15.40;7.18;;;4.70;99.90;;;;;;5058624;28;20044;-72
2022/05/03 03:04:26;;;;;;;18.92;8.93;;;4.50;99.90;;;;;;5038375;28;20414;-70
2022/05/03 03:06:55;;;;;;;22.88;9.00;;;4.50;99.90;;;;;;5055806;28;20049;-71
2022/05/03 03:09:43;;;;;;;21.10;7.68;;;4.50;99.90;;;;;;5056368;28;20041;-72
2022/05/03 03:12:42;;;;;;;18.75;8.77;;;4.40;99.90;;;;;;5055713;28;20044;-72
2022/05/03 03:15:09;;;;;;;17.77;8.82;;;4.40;99.90;;;;;;5055847;28;20045;-72
2022/05/03 03:17:49;;;;;;;17.60;8.07;;;4.40;99.90;;;;;;5054654;28;20151;-72
2022/05/03 03:20:17;;;;;;;17.55;8.23;;;4.40;99.90;;;;;;5054141;28;20045;-72
2022/05/03 03:22:45;;;;;;;17.33;8.00;;;4.40;99.90;;;;;;5055368;28;20052;-72
2022/05/03 03:25:16;;;;;;;17.90;8.25;;;4.40;99.90;;;;;;5087323;28;20377;-72
2022/05/03 03:27:43;;;;;;;18.08;7.55;;;4.40;99.90;;;;;;5053836;28;20071;-75
2022/05/03 03:30:11;;;;;;;18.00;7.68;;;4.40;99.90;;;;;;5053916;28;20045;-74
2022/05/03 03:32:39;;;;;;;16.10;7.55;;;4.40;99.90;;;;;;5054131;28;20045;-72
2022/05/03 03:35:05;;;;;;;17.55;7.85;;;4.40;99.90;;;;;;5036559;28;20096;-72
2022/05/03 03:37:34;;;;;;;22.27;8.48;;;4.30;99.90;;;;;;5053048;28;20501;-73
2022/05/03 03:40:04;;;;;;;17.65;8.20;;;4.30;99.90;;;;;;5055611;28;20205;-72
2022/05/03 03:42:30;;;;;;;18.48;7.88;;;4.30;99.90;;;;;;5054528;28;20045;-73
2022/05/03 03:45:07;;;;;;;17.85;8.02;;;4.30;99.90;;;;;;5035992;28;20068;-73
2022/05/03 03:47:37;;;;;;;18.55;8.50;;;4.20;99.90;;;;;;5054884;28;20113;-72
2022/05/03 03:50:04;;;;;;;16.90;7.90;;;4.30;99.90;;;;;;5055009;28;20171;-73
2022/05/03 03:52:31;;;;;;;16.77;7.82;;;4.20;99.90;;;;;;5054985;28;20105;-72
2022/05/03 03:54:58;;;;;;;18.25;8.73;;;4.20;99.90;;;;;;5054233;28;20049;-71
2022/05/03 03:57:24;;;;;;;18.95;8.48;;;4.20;99.90;;;;;;5054534;28;20465;-71
2022/05/03 03:59:51;;;;;;;20.08;8.75;;;4.20;99.90;;;;;;5053952;28;20049;-72
2022/05/03 04:02:17;;;;;;;22.85;9.25;;;4.20;99.90;;;;;;5055906;28;20091;-72
2022/05/03 04:04:45;;;;;;;18.80;9.10;;;4.20;99.90;;;;;;5054037;28;20045;-70
2022/05/03 04:07:11;;;;;;;21.45;9.07;;;4.20;99.90;;;;;;5018655;28;20055;-73
2022/05/03 04:09:37;;;;;;;21.20;9.32;;;4.20;99.90;;;;;;5052278;28;20045;-71
2022/05/03 04:12:04;;;;;;;22.00;10.18;;;4.20;99.90;;;;;;5035151;28;20072;-72
2022/05/03 04:14:31;;;;;;;20.08;9.88;;;4.20;99.90;;;;;;5034707;28;20098;-72
2022/05/03 04:16:57;;;;;;;18.03;7.93;;;4.20;99.90;;;;;;5055229;28;20053;-72
2022/05/03 04:19:24;;;;;;;21.02;9.40;;;4.30;99.90;;;;;;5056748;28;20049;-72
2022/05/03 04:21:50;;;;;;;19.63;9.43;;;4.30;99.90;;;;;;5056373;28;20174;-71
2022/05/03 04:24:16;;;;;;;21.33;8.88;;;4.30;99.90;;;;;;5056507;28;20080;-72
2022/05/03 04:26:43;;;;;;;23.02;9.18;;;4.30;99.90;;;;;;5055162;28;20045;-74
2022/05/03 04:29:09;;;;;;;18.13;8.30;;;4.30;99.90;;;;;;5055853;28;20071;-72
2022/05/03 04:31:35;;;;;;;23.17;9.85;;;4.40;99.90;;;;;;5055476;28;20052;-72
2022/05/03 04:34:03;;;;;;;22.55;9.05;;;4.50;99.90;;;;;;5056564;28;20057;-73
2022/05/03 04:36:33;;;;;;;18.33;9.07;;;4.60;99.90;;;;;;5057999;28;20049;-77
2022/05/03 04:39:00;;;;;;;23.48;9.77;;;4.70;99.90;;;;;;5058513;28;20127;-73
2022/05/03 04:41:26;;;;;;;20.75;9.07;;;4.80;99.90;;;;;;5056369;28;20124;-73
2022/05/03 04:43:52;;;;;;;19.45;8.52;;;4.90;99.90;;;;;;5038758;28;20056;-72
2022/05/03 04:46:19;;;;;;;22.23;8.82;;;5.00;99.90;;;;;;5054983;28;20443;-72
2022/05/03 04:48:45;;;;;;;21.58;9.50;;;5.10;99.90;;;;;;5057801;28;20066;-72
2022/05/03 04:51:19;;;;;;;20.40;9.93;;;5.30;99.90;;;;;;5090144;28;20096;-72
2022/05/03 04:53:45;;;;;;;20.65;9.52;;;5.40;99.90;;;;;;5057471;28;20053;-74
2022/05/03 04:56:19;;;;;;;18.73;9.20;;;5.60;99.90;;;;;;5039778;28;20044;-73
2022/05/03 04:58:46;;;;;;;18.80;8.77;;;5.70;99.90;;;;;;5055253;28;20102;-73
2022/05/03 05:01:12;;;;;;;19.27;9.30;;;6.00;99.90;;;;;;5056048;28;20049;-73
2022/05/03 05:03:38;;;;;;;19.25;8.85;;;6.10;99.90;;;;;;5056345;28;20100;-74
2022/05/03 05:06:04;;;;;;;15.70;8.20;;;6.20;99.90;;;;;;5055005;28;20048;-73
2022/05/03 05:08:31;;;;;;;16.75;8.93;;;6.30;99.90;;;;;;5054293;28;20182;-73
2022/05/03 05:10:57;;;;;;;17.95;8.00;;;6.40;99.90;;;;;;5038159;28;20045;-75
2022/05/03 05:13:22;;;;;;;20.65;8.27;;;6.50;99.90;;;;;;5056132;28;20047;-73
2022/05/03 05:15:49;;;;;;;17.92;8.77;;;6.50;99.90;;;;;;5054125;28;20405;-73
2022/05/03 05:18:16;;;;;;;16.33;8.10;;;6.50;99.90;;;;;;5055657;28;20053;-73
2022/05/03 05:20:42;;;;;;;18.67;8.93;;;6.60;99.90;;;;;;5055339;28;20396;-74
2022/05/03 05:23:08;;;;;;;20.02;9.23;;;6.60;99.90;;;;;;5055045;28;20128;-76
2022/05/03 05:25:33;;;;;;;19.05;8.98;;;6.70;99.90;;;;;;5053688;28;20128;-74
2022/05/03 05:27:59;;;;;;;19.83;10.20;;;6.80;99.90;;;;;;5054078;28;20045;-75
2022/05/03 05:30:25;;;;;;;17.42;9.40;;;6.90;99.90;;;;;;5055904;28;20056;-74
2022/05/03 05:32:50;;;;;;;18.60;9.27;;;7.00;99.90;;;;;;5054024;28;20407;-74
2022/05/03 05:35:16;;;;;;;19.83;9.65;;;7.10;99.90;;;;;;5055161;28;20076;-74
2022/05/03 05:37:42;;;;;;;19.27;10.18;;;7.20;99.90;;;;;;5037950;28;20537;-73
2022/05/03 05:40:08;;;;;;;19.23;9.75;;;7.30;99.90;;;;;;5037451;28;20045;-72
2022/05/03 05:42:34;;;;;;;22.92;10.52;;;7.40;99.90;;;;;;5053733;28;20072;-74
2022/05/03 05:45:00;;;;;;;19.65;10.40;;;7.50;99.90;;;;;;5055155;28;20033;-74
2022/05/03 05:47:27;;;;;;;22.38;10.30;;;7.60;99.90;;;;;;5053514;28;20052;-72
2022/05/03 05:49:53;;;;;;;22.60;11.13;;;7.70;99.90;;;;;;5054425;28;20037;-73
2022/05/03 05:55:05;;;;;;;22.58;12.20;;;7.90;99.90;;;;;;5053596;28;20327;-73
2022/05/03 05:57:30;;;;;;;21.70;11.90;;;8.00;99.90;;;;;;5037176;28;20049;-73
2022/05/03 05:59:56;;;;;;;24.80;11.93;;;8.10;99.90;;;;;;5055103;28;20053;-73
2022/05/03 06:02:22;;;;;;;20.52;11.77;;;8.30;99.90;;;;;;5053807;28;20112;-74
2022/05/03 06:04:48;;;;;;;26.13;12.38;;;8.30;99.90;;;;;;5053626;28;20045;-74
2022/05/03 06:07:14;;;;;;;26.80;12.57;;;8.40;99.90;;;;;;5054501;28;20427;-73
2022/05/03 06:09:39;;;;;;;28.27;13.57;;;8.40;99.90;;;;;;5036750;28;20132;-74
2022/05/03 06:12:05;;;;;;;32.20;15.20;;;8.50;99.90;;;;;;5037071;28;20049;-73
2022/05/03 06:14:31;;;;;;;29.48;14.60;;;8.40;99.90;;;;;;5053501;28;20052;-74
2022/05/03 06:16:57;;;;;;;25.80;13.48;;;8.60;99.90;;;;;;5052723;28;20136;-73
2022/05/03 06:19:24;;;;;;;35.92;17.35;;;8.80;99.90;;;;;;5053828;28;20131;-74
2022/05/03 06:21:50;;;;;;;34.35;18.13;;;9.00;99.90;;;;;;5054702;28;20048;-74
2022/05/03 06:24:16;;;;;;;40.35;19.05;;;9.10;99.90;;;;;;5054640;28;20231;-73
2022/05/03 06:26:43;;;;;;;49.20;23.80;;;9.40;99.90;;;;;;5052794;28;20107;-74
2022/05/03 06:29:09;;;;;;;55.92;24.38;;;9.70;99.90;;;;;;5054075;28;20378;-73
2022/05/03 06:31:38;;;;;;;54.47;24.87;;;9.90;99.90;;;;;;5053775;28;20382;-74
2022/05/03 06:34:07;;;;;;;61.67;28.25;;;10.00;99.90;;;;;;5052820;28;20041;-74
2022/05/03 06:36:35;;;;;;;59.05;27.13;;;10.10;99.90;;;;;;5052376;28;20041;-76
2022/05/03 06:39:04;;;;;;;;;;;10.10;99.90;;;;;;5052982;28;20182;-74
2022/05/03 06:41:30;;;;;;;56.28;24.48;;;10.30;99.90;;;;;;5052766;28;20391;-75
2022/05/03 06:43:58;;;;;;;59.08;25.52;;;10.40;99.90;;;;;;5036033;28;20045;-74
2022/05/03 06:46:25;;;;;;;55.20;24.77;;;10.40;99.90;;;;;;5053812;28;20041;-74
2022/05/03 06:48:50;;;;;;;57.30;26.98;;;10.60;99.90;;;;;;5035723;28;20140;-74
2022/05/03 06:51:16;;;;;;;61.38;27.42;;;10.70;99.90;;;;;;5054162;28;20072;-77
2022/05/03 06:53:42;;;;;;;57.88;25.00;;;10.70;99.90;;;;;;5053776;28;20067;-73
2022/05/03 06:56:08;;;;;;;57.30;26.52;;;10.90;99.90;;;;;;5054669;28;20533;-73
2022/05/03 06:58:34;;;;;;;64.05;28.42;;;10.70;99.90;;;;;;5052984;28;20040;-72
2022/05/03 07:01:08;;;;;;;57.47;24.80;;;10.80;99.90;;;;;;5053912;28;20071;-74
2022/05/03 07:03:34;;;;;;;58.08;24.48;;;11.00;99.90;;;;;;5052770;28;20080;-74
2022/05/03 07:05:59;;;;;;;60.65;25.05;;;11.20;99.90;;;;;;5053920;28;20480;-75
2022/05/03 07:08:25;;;;;;;56.35;25.08;;;11.60;99.90;;;;;;5053631;28;20053;-74
2022/05/03 07:10:51;;;;;;;58.70;28.35;;;11.50;99.90;;;;;;5019969;28;20080;-73
2022/05/03 07:13:23;;;;;;;58.20;26.23;;;11.60;99.90;;;;;;5052519;28;20059;-72
2022/05/03 07:15:54;;;;;;;57.88;25.20;;;11.40;99.90;;;;;;5036307;28;20501;-74
2022/05/03 07:23:51;;;;;;;57.38;24.17;;;11.40;99.90;;;;;;5053946;28;20404;-75
2022/05/03 07:26:17;;;;;;;56.00;23.23;;;11.00;99.90;;;;;;5052981;28;20059;-75
2022/05/03 07:28:44;;;;;;;55.47;24.00;;;11.20;99.90;;;;;;5052201;28;20049;-75
2022/05/03 07:31:09;;;;;;;50.03;22.77;;;11.30;99.90;;;;;;5019689;28;20048;-74
2022/05/03 07:33:35;;;;;;;70.05;26.75;;;11.10;99.90;;;;;;5052522;28;20045;-74
2022/05/03 07:36:03;;;;;;;60.35;23.92;;;11.10;99.90;;;;;;5035151;28;20037;-73
2022/05/03 07:38:29;;;;;;;74.20;25.70;;;11.10;99.90;;;;;;5068339;28;20045;-73
2022/05/03 07:40:56;;;;;;;88.07;29.92;;;10.90;99.90;;;;;;5053126;28;20079;-75
2022/05/03 07:43:23;;;;;;;91.43;28.63;;;10.80;99.90;;;;;;5053667;28;20311;-74
2022/05/03 07:45:49;;;;;;;101.35;30.35;;;10.80;99.90;;;;;;5052144;28;20473;-74
2022/05/03 07:48:15;;;;;;;99.60;28.33;;;10.70;99.90;;;;;;5051899;28;20374;-75
2022/05/03 07:50:41;;;;;;;90.30;27.13;;;10.70;99.90;;;;;;5052068;28;20045;-74
2022/05/03 07:53:07;;;;;;;84.18;27.25;;;10.80;99.90;;;;;;5051822;28;20295;-73
2022/05/03 07:55:32;;;;;;;84.60;26.45;;;10.90;99.90;;;;;;5052261;28;20065;-75
2022/05/03 07:57:58;;;;;;;84.45;26.48;;;11.00;99.90;;;;;;5052740;28;20044;-75
2022/05/03 08:00:26;;;;;;;74.53;24.90;;;11.10;99.90;;;;;;5035706;28;20131;-75
2022/05/03 08:02:52;;;;;;;80.25;27.13;;;11.30;99.90;;;;;;5051243;28;20071;-75
2022/05/03 08:05:18;;;;;;;93.32;26.95;;;11.20;99.90;;;;;;5051207;28;20045;-75
2022/05/03 08:07:44;;;;;;;84.32;27.85;;;11.20;99.90;;;;;;5051894;28;20056;-75
2022/05/03 08:10:10;;;;;;;86.32;30.08;;;11.00;99.90;;;;;;5052458;28;20129;-74
2022/05/03 08:12:37;;;;;;;88.55;27.73;;;10.90;99.90;;;;;;5051654;28;20053;-80
2022/05/03 08:15:04;;;;;;;85.07;26.13;;;11.00;99.90;;;;;;5052052;28;20049;-74
2022/05/03 08:17:30;;;;;;;;;;;11.20;99.90;;;;;;5051291;28;20053;-74
2022/05/03 08:19:56;;;;;;;97.97;25.65;;;11.20;99.90;;;;;;5085357;28;19921;-74
2022/05/03 08:22:22;;;;;;;93.40;24.85;;;11.10;99.90;;;;;;5051793;28;20400;-74
2022/05/03 08:24:48;;;;;;;99.10;25.75;;;11.20;99.90;;;;;;5051782;28;20045;-74
2022/05/03 08:27:14;;;;;;;98.60;24.63;;;11.20;99.90;;;;;;5052128;28;20136;-72
2022/05/03 08:29:39;;;;;;;106.72;27.65;;;11.10;99.90;;;;;;5052235;28;20045;-74
2022/05/03 08:32:06;;;;;;;112.75;29.33;;;11.10;99.90;;;;;;5051782;28;20059;-73
2022/05/03 08:34:32;;;;;;;107.18;30.73;;;10.80;99.90;;;;;;5052331;28;20136;-75
2022/05/03 08:42:30;;;;;;;104.60;28.30;;;10.80;99.90;;;;;;5052517;28;20048;-74
2022/05/03 08:44:56;;;;;;;92.00;27.52;;;10.80;99.90;;;;;;5034744;28;20044;-73
2022/05/03 08:47:25;;;;;;;83.27;24.70;;;10.80;99.90;;;;;;5052334;28;20084;-73
2022/05/03 08:50:07;;;;;;;70.50;22.42;;;10.80;99.90;;;;;;5035385;28;20461;-73
2022/05/03 08:52:43;;;;;;;65.63;20.27;;;11.10;99.90;;;;;;5051438;28;20465;-73
2022/05/03 08:55:11;;;;;;;62.25;20.33;;;11.30;99.90;;;;;;5051579;28;20045;-74
2022/05/03 08:57:37;;;;;;;57.20;20.10;;;11.40;99.90;;;;;;5053017;28;20055;-74
2022/05/03 09:00:05;;;;;;;61.00;22.83;;;11.50;99.90;;;;;;5056107;28;20045;-74
2022/05/03 09:02:33;;;;;;;59.95;20.70;;;11.10;99.90;;;;;;5056752;28;20131;-73
2022/05/03 09:05:00;;;;;;;54.15;21.33;;;10.90;99.90;;;;;;5056351;28;20385;-75
2022/05/03 09:07:26;;;;;;;59.75;20.63;;;11.10;99.90;;;;;;5038631;28;20053;-73
2022/05/03 09:09:55;;;;;;;53.65;20.65;;;11.00;99.90;;;;;;5054425;28;20053;-74
2022/05/03 09:12:24;;;;;;;59.63;21.50;;;11.10;99.90;;;;;;5054728;28;20045;-74
2022/05/03 09:14:50;;;;;;;62.42;22.17;;;11.10;99.90;;;;;;5055698;28;20118;-74
2022/05/03 09:17:37;;;;;;;65.72;25.67;;;10.80;99.90;;;;;;5037669;28;20061;-74
2022/05/03 09:23:46;;;;;;;74.18;27.63;;;11.00;99.90;;;;;;5053929;28;20056;-71
2022/05/03 09:26:19;;;;;;;64.90;21.95;;;10.60;99.90;;;;;;5054346;28;20159;-72
2022/05/03 09:28:54;;;;;;;65.50;23.70;;;10.90;99.90;;;;;;5054881;28;20049;-72
2022/05/03 09:31:41;;;;;;;68.32;22.75;;;11.00;99.90;;;;;;5037404;28;20049;-73
2022/05/03 09:34:19;;;;;;;70.80;27.40;;;10.80;99.90;;;;;;5037784;28;20045;-73
2022/05/03 09:36:58;;;;;;;62.72;24.52;;;10.70;99.90;;;;;;5054756;28;20048;-73
2022/05/03 09:39:31;;;;;;;64.68;23.15;;;10.80;99.90;;;;;;5054485;28;20080;-72
2022/05/03 09:42:10;;;;;;;52.67;19.63;;;10.90;99.90;;;;;;5055573;28;20116;-72
2022/05/03 09:45:00;;;;;;;56.95;19.10;;;11.00;99.90;;;;;;5055457;28;20424;-73
2022/05/03 09:47:32;;;;;;;52.67;18.55;;;11.10;99.90;;;;;;5054037;28;20052;-70
2022/05/03 09:49:59;;;;;;;61.08;21.02;;;11.10;99.90;;;;;;5036981;28;20094;-73
2022/05/03 09:52:30;;;;;;;45.00;17.30;;;11.10;99.90;;;;;;5053733;28;20084;-74
2022/05/03 09:55:04;;;;;;;41.45;17.02;;;11.10;99.90;;;;;;5053424;28;20045;-73
2022/05/03 09:57:31;;;;;;;40.83;14.60;;;11.20;99.90;;;;;;5055403;28;20128;-72
2022/05/03 09:59:58;;;;;;;40.45;15.32;;;11.10;99.90;;;;;;5054634;28;20052;-72
2022/05/03 10:02:30;;;;;;;38.97;12.60;;;10.90;99.90;;;;;;5053837;28;20144;-73
2022/05/03 10:04:58;;;;;;;30.42;11.80;;;11.10;99.90;;;;;;5054674;28;20045;-73
2022/05/03 10:07:29;;;;;;;31.08;11.95;;;11.00;99.90;;;;;;5053880;28;20049;-69
2022/05/03 10:09:55;;;;;;;24.45;8.07;;;11.10;99.90;;;;;;5055427;28;20111;-74
2022/05/03 10:12:21;;;;;;;21.67;9.23;;;11.20;99.90;;;;;;5037956;28;20461;-73
2022/05/03 10:14:48;;;;;;;24.40;8.45;;;11.10;99.90;;;;;;5038135;28;20048;-71
2022/05/03 10:20:42;;;;;;;22.10;7.65;;;11.10;99.90;;;;;;5053229;28;20413;-73
2022/05/03 10:23:32;;;;;;;18.60;6.55;;;11.30;99.90;;;;;;5052895;28;20404;-71
2022/05/03 10:26:06;;;;;;;27.00;7.93;;;11.30;99.90;;;;;;5037003;28;20420;-75
2022/05/03 10:29:07;;;;;;;26.60;9.15;;;11.50;99.90;;;;;;5054699;28;20361;-71
2022/05/03 10:32:04;;;;;;;28.08;8.05;;;11.30;99.90;;;;;;5053927;28;20045;-71
2022/05/03 10:34:43;;;;;;;25.20;7.78;;;11.10;99.90;;;;;;5037806;28;20053;-71
2022/05/03 10:37:11;;;;;;;32.50;9.27;;;11.20;99.90;;;;;;5054432;28;20041;-70
2022/05/03 10:39:55;;;;;;;23.88;6.82;;;10.90;99.90;;;;;;5036353;28;20149;-72
2022/05/03 10:42:31;;;;;;;30.60;7.80;;;11.20;99.90;;;;;;5052919;28;20516;-71
2022/05/03 10:44:58;;;;;;;33.90;7.95;;;11.30;99.90;;;;;;5035971;28;20051;-72
2022/05/03 10:47:44;;;;;;;25.83;6.82;;;11.20;99.90;;;;;;5053924;28;20108;-71
2022/05/03 10:50:16;;;;;;;24.90;7.70;;;11.20;99.90;;;;;;5052687;28;20060;-71
2022/05/03 10:52:59;;;;;;;28.02;9.07;;;11.30;99.90;;;;;;5053286;28;20059;-70
2022/05/03 10:55:32;;;;;;;31.05;7.78;;;10.80;99.90;;;;;;5035653;28;20427;-71
2022/05/03 10:58:20;;;;;;;30.13;8.18;;;10.90;99.90;;;;;;5054140;28;20134;-71
2022/05/03 11:01:08;;;;;;;25.30;8.68;;;11.00;99.90;;;;;;5052191;28;20129;-71
2022/05/03 11:03:34;;;;;;;34.05;10.10;;;10.80;99.90;;;;;;5052317;28;20132;-70
2022/05/03 11:06:18;;;;;;;33.97;9.88;;;10.80;99.90;;;;;;5053798;28;20088;-70
2022/05/03 11:09:02;;;;;;;29.85;7.38;;;10.80;99.90;;;;;;5035715;28;20485;-70
2022/05/03 11:11:43;;;;;;;33.22;8.35;;;11.10;99.90;;;;;;5053348;28;20049;-71
2022/05/03 11:14:36;;;;;;;36.63;8.20;;;11.30;99.90;;;;;;5052376;28;20095;-72
2022/05/03 11:17:20;;;;;;;39.22;10.57;;;11.30;99.90;;;;;;5052370;28;20057;-71
2022/05/03 11:19:52;;;;;;;23.05;6.75;;;11.20;99.90;;;;;;5035218;28;20045;-73
2022/05/03 11:22:26;;;;;;;32.40;9.40;;;11.40;99.90;;;;;;5035466;28;20048;-72
2022/05/03 11:24:54;;;;;;;29.38;7.55;;;11.20;99.90;;;;;;5053894;28;20080;-73
2022/05/03 11:27:21;;;;;;;23.27;6.72;;;11.50;99.90;;;;;;5051822;28;20466;-72
2022/05/03 11:29:50;;;;;;;23.25;6.22;;;11.40;99.90;;;;;;5035547;28;20051;-71
2022/05/03 11:32:25;;;;;;;30.50;7.43;;;11.70;99.90;;;;;;5050972;28;20057;-72
2022/05/03 11:34:58;;;;;;;26.02;7.40;;;11.60;99.90;;;;;;5052296;28;20366;-75
2022/05/03 11:37:24;;;;;;;26.05;6.47;;;11.60;99.90;;;;;;5053003;28;20112;-74
2022/05/03 11:39:52;;;;;;;27.80;6.55;;;11.80;99.90;;;;;;5052116;28;20404;-70
2022/05/03 11:42:23;;;;;;;31.63;7.28;;;11.80;99.90;;;;;;5053049;28;20084;-72
2022/05/03 11:44:52;;;;;;;25.80;6.15;;;11.80;99.90;;;;;;5051667;28;20047;-70
2022/05/03 11:47:18;;;;;;;28.80;6.35;;;11.70;99.90;;;;;;5051824;28;20072;-71
2022/05/03 11:49:43;;;;;;;25.23;6.20;;;11.90;99.90;;;;;;5051731;28;20049;-71
2022/05/03 11:57:45;;;;;;;22.92;5.47;;;11.80;99.90;;;;;;5052906;28;20135;-73
2022/05/03 12:00:16;;;;;;;21.70;6.18;;;12.10;99.90;;;;;;5051622;28;20037;-70
2022/05/03 12:02:44;;;;;;;25.63;5.63;;;12.40;99.90;;;;;;5036183;28;20103;-72
2022/05/03 12:05:19;;;;;;;21.75;5.97;;;12.30;99.90;;;;;;5052813;28;20515;-73
2022/05/03 12:07:47;;;;;;;16.95;5.00;;;12.60;99.90;;;;;;5051896;28;20106;-72
2022/05/03 12:10:19;;;;;;;19.70;5.35;;;12.90;99.90;;;;;;5052535;28;20044;-73
2022/05/03 12:13:16;;;;;;;22.50;5.45;;;13.10;99.90;;;;;;5051612;28;20053;-73
2022/05/03 12:15:46;;;;;;;13.75;4.47;;;13.10;99.90;;;;;;5052632;28;20389;-74
2022/05/03 12:18:11;;;;;;;17.23;4.85;;;13.00;99.90;;;;;;5034562;28;20139;-74
2022/05/03 12:21:00;;;;;;;23.40;5.63;;;13.10;99.90;;;;;;5035238;28;20141;-71
2022/05/03 12:23:29;;;;;;;18.60;4.80;;;;;;;;;;5026652;28;20123;-73
2022/05/03 12:25:57;;;;;;;15.38;4.28;;;;;;;;;;5034939;28;20051;-72
2022/05/03 12:28:39;;;;;;;;;;;12.80;99.90;;;;;;5051910;28;20380;-72
2022/05/03 12:31:07;;;;;;;19.88;5.88;;;13.10;99.90;;;;;;5068494;28;20328;-72
2022/05/03 12:33:33;;;;;;;19.65;5.18;;;12.80;99.90;;;;;;5052084;28;20124;-73
2022/05/03 12:35:59;;;;;;;16.55;4.78;;;12.60;99.90;;;;;;5053428;28;20437;-72
2022/05/03 12:38:28;;;;;;;22.63;4.53;;;13.00;99.90;;;;;;5055141;28;20102;-73
2022/05/03 12:40:56;;;;;;;20.83;4.60;;;13.10;99.90;;;;;;5038893;28;20056;-72
2022/05/03 12:43:24;;;;;;;20.10;5.38;;;13.40;99.90;;;;;;5056037;28;20060;-74
2022/05/03 12:46:04;;;;;;;18.25;4.97;;;13.30;99.90;;;;;;5054804;28;20064;-73
2022/05/03 12:48:32;;;;;;;22.23;5.30;;;13.50;99.90;;;;;;5055294;28;20485;-72
2022/05/03 12:50:59;;;;;;;16.50;4.53;;;13.20;99.90;;;;;;5054903;28;20113;-73
2022/05/03 12:53:26;;;;;;;21.63;5.00;;;13.50;99.90;;;;;;5054915;28;20056;-74
2022/05/03 12:55:53;;;;;;;21.73;5.45;;;13.60;99.90;;;;;;5055949;28;20052;-73
2022/05/03 12:58:22;;;;;;;;;;;13.10;99.90;;;;;;5038711;28;20049;-72
2022/05/03 13:00:57;;;;;;;15.18;4.75;;;13.40;99.90;;;;;;5071178;28;19920;-74
2022/05/03 13:03:24;;;;;;;18.88;4.30;;;13.20;99.90;;;;;;5038361;28;20045;-71
2022/05/03 13:05:50;;;;;;;13.55;3.63;;;13.70;99.90;;;;;;5038786;28;20393;-75
2022/05/03 13:08:19;;;;;;;19.90;4.82;;;14.10;99.90;;;;;;5038836;28;20056;-72
2022/05/03 13:10:49;;;;;;;12.80;4.18;;;13.90;99.90;;;;;;5056742;28;20060;-70
2022/05/03 13:13:15;;;;;;;18.55;4.05;;;14.10;99.90;;;;;;5056165;28;20045;-71
2022/05/03 13:15:41;;;;;;;14.93;4.03;;;13.90;99.90;;;;;;5038010;28;20048;-73
2022/05/03 13:18:07;;;;;;;20.05;4.35;;;14.10;99.90;;;;;;5038777;28;20492;-73
2022/05/03 13:20:32;;;;;;;16.58;3.60;;;13.90;99.90;;;;;;5071190;28;20045;-71
2022/05/03 13:22:58;;;;;;;15.98;3.25;;;14.20;99.90;;;;;;5054491;28;20370;-74
2022/05/03 13:25:25;;;;;;;15.35;3.40;;;14.40;99.90;;;;;;5054761;28;20092;-75
2022/05/03 13:27:51;;;;;;;15.67;3.27;;;14.10;99.90;;;;;;5038253;28;20095;-73
2022/05/03 13:30:17;;;;;;;10.90;3.75;;;14.30;99.90;;;;;;5054099;28;20307;-73
2022/05/03 13:32:43;;;;;;;12.55;3.55;;;13.70;99.90;;;;;;5055357;28;20128;-74
2022/05/03 13:35:10;;;;;;;16.40;3.20;;;13.60;99.90;;;;;;5054081;28;20377;-74